• Join FlightAware (Why Join?)
  • Login
  • US Flag 
08:38PM EDT


 

Airport Tracker/Info


-or-


 

Live Flight TrackerFlight Track Log ✈ AWI3704 ✈ 14-Jul-2013 ✈ KALB - KPHL

Flight Track Log - Related Links

Times and Time Zones

All times are in EDT time to prevent confusion due to time zone crossing. See the AWI3704 flight status page for this flight to view local times or setup timezone preferences in your user account.

Time Position Orientation Groundspeed Altitude Reporting Facility
EDT Latitude Longitude Course Direction KTS MPH feet Rate Location/Type
12:01PM 42.8000 -73.8522 314° West 196 226 3,400  Level Boston Center
12:02PM 42.7334 -74.1641 270° West  Level FlightAware Approximate
12:02PM 42.7972 -73.9114 266° West 213 245 5,000  Level Boston Center
12:03PM 42.7333 -74.2855 270° West  Level FlightAware Approximate
12:03PM 42.7853 -74.0328 262° West 268 308 7,600  Level Boston Center
12:04PM 42.6790 -74.3758 220° Southwest  Level FlightAware Approximate
12:04PM 42.7692 -74.1286 257° West 268 308 10,300  Level Boston Center
12:05PM 42.6103 -74.4530 220° Southwest  Level FlightAware Approximate
12:05PM 42.7550 -74.2442 261° West 279 321 12,000  Level Boston Center
12:06PM 42.7181 -74.3336 241° Southwest 289 333 13,500 1,560 Climbing Boston Center
12:07PM 42.6436 -74.4244 222° Southwest 312 359 15,200 1,260 Climbing Boston Center
12:08PM 42.5797 -74.4983 220° Southwest 334 384 16,100 420 Climbing Boston Center
12:09PM 42.4947 -74.5942 220° Southwest 357 411 16,100  Level Boston Center
12:10PM 42.4200 -74.6817 221° Southwest 384 442 16,100  Level Boston Center
12:11PM 42.3281 -74.7878 220° Southwest 396 456 16,100 -60 Level Boston Center
12:13PM 42.1850 -74.9464 219° Southwest 405 466 16,000 -60 Descending New York Center
12:14PM 42.0883 -75.0353 214° Southwest 415 478 16,000  Level New York Center
12:15PM 41.9897 -75.1156 211° Southwest 422 486 16,000  Level New York Center
12:16PM 41.8931 -75.1956 212° Southwest 417 480 16,000 -300 Level New York Center
12:17PM 41.8050 -75.2647 210° Southwest 422 486 15,500 -780 Descending New York Center
12:18PM 41.7061 -75.3442 211° Southwest 422 486 14,500 -1,080 Descending New York Center
12:19PM 41.6008 -75.4314 212° Southwest 417 480 13,400 -1,080 Descending New York Center
12:20PM 41.5061 -75.5050 210° Southwest 417 480 12,400 -720 Descending New York Center
12:21PM 41.4114 -75.5814 211° Southwest 412 474 12,000 -240 Descending New York Center
12:22PM 41.3278 -75.6444 210° Southwest 401 461 12,000  Level New York Center
12:23PM 41.2300 -75.6869 198° South 380 437 12,000  Level New York Center
12:24PM 41.1250 -75.6600 169° South 388 447 12,000  Level New York Center
12:25PM 41.0100 -75.6217 166° South 394 453 12,000  Level New York Center
12:26PM 40.9050 -75.5867 166° South 394 453 12,000  Level New York Center
12:27PM 40.8003 -75.5519 166° South 394 453 12,000  Level New York Center
12:28PM 40.7058 -75.5178 165° South 399 459 12,000 -60 Level New York Center
12:29PM 40.5989 -75.4831 166° South 392 451 11,900 -900 Descending New York Center
12:30PM 40.4961 -75.4489 166° South 363 418 10,300 -1,260 Descending New York Center
12:31PM 40.4181 -75.4136 161° South 316 364 9,400 -1,380 Descending New York Center
12:32PM 40.3531 -75.3764 156° South 283 326 7,600 -1,740 Descending New York Center
12:33PM 40.2836 -75.3339 155° Southeast 277 319 6,000 -840 Descending New York Center
12:34PM 40.2108 -75.2772 149° Southeast 277 319 6,000  Level New York Center
12:35PM 40.1464 -75.2217 147° Southeast 284 327 6,000  Level New York Center
12:36PM 40.0958 -75.1775 146° Southeast 264 304 6,000  Level New York Center
12:37PM 40.0414 -75.1308 147° Southeast 224 258 6,000  Level New York Center
12:38PM 40.0011 -75.0903 142° Southeast 211 243 6,000  Level New York Center
12:39PM 40.0167 -75.0000 77° East 202 232 6,000 -480 Level Philadelphia TRACON
12:40PM 40.0333 -74.9167 75° East 194 223 5,000 -960 Descending Philadelphia TRACON
12:41PM 40.0000 -74.8833 143° Southeast 179 206 4,000 -1,020 Descending Philadelphia TRACON
12:42PM 39.9500 -74.8667 166° South 179 206 3,000 -600 Descending Philadelphia TRACON
12:43PM 39.9367 -74.9103 248° West 158 182 3,000 -300 Level New York Center
12:44PM 39.9167 -74.9833 250° West 168 193 2,400 -480 Descending Philadelphia TRACON